createdAt,value
2023-01-18T00:02:38.273Z,159.60
2023-01-18T00:07:36.562Z,140.10
2023-01-18T00:12:35.846Z,137.30
2023-01-18T00:17:35.171Z,128.00
2023-01-18T00:22:35.490Z,120.40
2023-01-18T00:27:33.813Z,110.40
2023-01-18T00:32:34.134Z,105.30
2023-01-18T00:37:33.461Z,100.50
2023-01-18T00:42:31.752Z,95.50
2023-01-18T00:47:32.056Z,88.90
2023-01-18T00:52:31.386Z,80.40
2023-01-18T00:57:31.685Z,77.60
2023-01-18T01:02:29.020Z,72.10
2023-01-18T01:07:30.134Z,69.40
2023-01-18T01:12:28.389Z,65.80
2023-01-18T01:17:27.728Z,60.60
2023-01-18T01:22:26.038Z,55.70
2023-01-18T01:27:25.193Z,57.00
2023-01-18T01:32:24.312Z,49.70
2023-01-18T01:37:23.750Z,48.90
2023-01-18T01:42:23.847Z,47.10
2023-01-18T01:47:22.149Z,44.80
2023-01-18T01:52:22.533Z,40.60
2023-01-18T01:57:20.625Z,40.80
2023-01-18T02:02:20.002Z,36.40
2023-01-18T02:07:19.106Z,35.50
2023-01-18T02:12:20.424Z,31.50
2023-01-18T02:17:17.798Z,31.70
2023-01-18T02:22:17.900Z,28.40
2023-01-18T02:27:18.222Z,27.60
2023-01-18T02:32:15.526Z,26.50
2023-01-18T02:37:14.871Z,25.10
2023-01-18T02:42:14.977Z,23.10
2023-01-18T02:47:14.375Z,21.80
2023-01-18T02:52:12.499Z,20.40
2023-01-18T02:57:11.940Z,19.80
2023-01-18T03:02:11.227Z,19.10
2023-01-18T03:07:10.245Z,18.10
2023-01-18T03:12:11.559Z,17.50
2023-01-18T03:17:08.882Z,16.80
2023-01-18T03:22:08.169Z,16.00
2023-01-18T03:27:07.292Z,14.60
2023-01-18T03:32:06.603Z,13.60
2023-01-18T03:37:06.931Z,12.80
2023-01-18T03:42:06.312Z,13.30
2023-01-18T03:47:04.409Z,12.20
2023-01-18T03:52:04.754Z,11.70
2023-01-18T03:57:05.050Z,11.30
2023-01-18T04:02:02.420Z,10.60
2023-01-18T04:07:01.560Z,10.00
2023-01-18T04:12:01.876Z,10.10
2023-01-18T04:17:00.187Z,8.60
2023-01-18T04:22:00.534Z,9.30
2023-01-18T04:26:59.854Z,8.10
2023-01-18T04:31:58.154Z,7.60
2023-01-18T04:36:57.425Z,7.50
2023-01-18T04:41:58.736Z,7.30
2023-01-18T04:46:56.091Z,6.60
2023-01-18T04:51:55.300Z,6.50
2023-01-18T04:56:56.598Z,5.50
2023-01-18T05:01:54.892Z,5.40
2023-01-18T05:06:54.196Z,5.40
2023-01-18T05:11:53.508Z,5.00
2023-01-18T05:16:51.790Z,4.90
2023-01-18T05:21:51.147Z,4.00
2023-01-18T05:26:50.235Z,4.40
2023-01-18T05:31:50.613Z,4.00
2023-01-18T05:36:50.713Z,3.70
2023-01-18T05:41:48.036Z,3.90
2023-01-18T05:46:47.345Z,3.40
2023-01-18T05:51:46.638Z,3.60
2023-01-18T05:56:46.957Z,3.30
2023-01-18T06:01:45.277Z,3.00
2023-01-18T06:06:44.546Z,3.10
2023-01-18T06:11:44.850Z,3.20
2023-01-18T06:16:43.201Z,2.90
2023-01-18T06:21:43.305Z,2.70
2023-01-18T06:26:41.603Z,3.10
2023-01-18T06:31:40.945Z,2.80
2023-01-18T06:36:41.153Z,2.40
2023-01-18T06:41:39.445Z,2.20
2023-01-18T06:46:39.777Z,2.00
2023-01-18T06:51:39.070Z,2.10
2023-01-18T06:56:37.396Z,2.00
2023-01-18T07:01:37.843Z,1.90
2023-01-18T07:06:36.002Z,2.10
2023-01-18T07:11:38.343Z,2.40
2023-01-18T07:16:34.659Z,2.10
2023-01-18T07:21:33.970Z,2.30
2023-01-18T07:26:33.263Z,1.90
2023-01-18T07:31:31.647Z,1.80
2023-01-18T07:36:31.777Z,2.30
2023-01-18T07:41:32.082Z,2.70
2023-01-18T07:46:31.465Z,2.30
2023-01-18T07:51:29.593Z,2.60
2023-01-18T07:56:30.934Z,2.60
2023-01-18T08:01:29.319Z,2.70
2023-01-18T08:06:27.456Z,4.40
2023-01-18T08:11:27.765Z,3.70
2023-01-18T08:16:28.069Z,4.30
2023-01-18T08:21:25.358Z,4.30
2023-01-18T08:26:24.793Z,4.10
2023-01-18T08:31:23.975Z,4.20
2023-01-18T08:36:23.206Z,4.70
2023-01-18T08:41:22.372Z,4.80
2023-01-18T08:46:23.739Z,4.60
2023-01-18T08:51:20.862Z,5.30
2023-01-18T08:56:20.161Z,7.30
2023-01-18T09:01:21.605Z,7.20
2023-01-18T09:06:18.814Z,7.00
2023-01-18T09:11:19.169Z,7.60
2023-01-18T09:16:18.315Z,8.20
2023-01-18T09:21:16.616Z,7.70
2023-01-18T09:26:16.732Z,8.90
2023-01-18T09:31:14.877Z,9.10
2023-01-18T09:36:15.150Z,9.30
2023-01-18T09:41:15.522Z,9.50
2023-01-18T09:46:14.657Z,8.00
2023-01-18T09:51:12.982Z,8.30
2023-01-18T09:56:11.304Z,7.90
2023-01-18T10:01:11.703Z,8.40
2023-01-18T10:06:09.815Z,7.70
2023-01-18T10:11:09.944Z,7.20
2023-01-18T10:16:10.431Z,6.60
2023-01-18T10:21:07.718Z,5.90
2023-01-18T10:26:09.984Z,5.70
2023-01-18T10:31:06.436Z,5.20
2023-01-18T10:36:05.681Z,4.70
2023-01-18T10:41:05.868Z,3.90
2023-01-18T10:46:06.005Z,3.80
2023-01-18T10:51:03.295Z,4.10
2023-01-18T10:56:02.591Z,3.30
2023-01-18T11:01:02.092Z,2.90
2023-01-18T11:06:01.162Z,3.00
2023-01-18T11:11:01.345Z,2.40
2023-01-18T11:15:59.474Z,2.60
2023-01-18T11:20:59.609Z,2.20
2023-01-18T11:25:58.920Z,2.40
2023-01-18T11:30:57.196Z,1.80
2023-01-18T11:35:58.525Z,2.10
2023-01-18T11:40:56.925Z,1.50
2023-01-18T11:45:55.998Z,1.50
2023-01-18T11:50:54.282Z,1.40
2023-01-18T11:55:53.594Z,1.60
2023-01-18T12:00:55.150Z,1.30
2023-01-18T12:05:53.095Z,1.40
2023-01-18T12:10:51.242Z,1.30
2023-01-18T12:15:50.374Z,1.20
2023-01-18T12:20:49.652Z,1.00
2023-01-18T12:25:48.980Z,1.00
2023-01-18T12:30:49.331Z,0.90
2023-01-18T12:35:47.430Z,1.10
2023-01-18T12:40:46.585Z,1.20
2023-01-18T12:45:46.994Z,1.00
2023-01-18T12:50:45.100Z,0.80
2023-01-18T12:55:44.424Z,1.40
2023-01-18T13:00:43.754Z,1.10
2023-01-18T13:05:43.097Z,1.10
2023-01-18T13:10:42.422Z,0.80
2023-01-18T13:15:44.655Z,0.90
2023-01-18T13:20:41.978Z,0.80
2023-01-18T13:25:39.262Z,0.90
2023-01-18T13:30:41.577Z,0.90
2023-01-18T13:35:38.887Z,0.90
2023-01-18T13:40:38.195Z,0.80
2023-01-18T13:45:37.503Z,0.70
2023-01-18T13:50:36.818Z,1.00
2023-01-18T13:55:36.147Z,1.00
2023-01-18T14:00:35.448Z,0.80
2023-01-18T14:05:35.728Z,0.90
2023-01-18T14:10:34.003Z,0.80
2023-01-18T14:15:33.333Z,0.80
2023-01-18T14:20:32.645Z,0.70
2023-01-18T14:25:32.937Z,0.90
2023-01-18T14:30:32.235Z,0.70
2023-01-18T14:35:31.586Z,0.70
2023-01-18T14:40:30.859Z,0.60
2023-01-18T14:45:30.176Z,1.00
2023-01-18T14:50:28.475Z,0.70
2023-01-18T14:55:28.767Z,0.50
2023-01-18T15:00:27.194Z,0.60
2023-01-18T15:05:27.281Z,0.60
2023-01-18T15:10:26.595Z,0.60
2023-01-18T15:15:24.752Z,0.50
2023-01-18T15:20:23.054Z,0.70
2023-01-18T15:25:26.466Z,0.50
2023-01-18T15:30:23.567Z,0.50
2023-01-18T15:35:21.877Z,0.70
2023-01-18T15:40:22.213Z,0.60
2023-01-18T15:45:20.343Z,0.50
2023-01-18T15:50:20.699Z,0.60
2023-01-18T15:55:19.838Z,0.50
2023-01-18T16:00:18.168Z,0.60
2023-01-18T16:05:17.524Z,0.60
2023-01-18T16:10:17.652Z,0.70
2023-01-18T16:15:15.963Z,0.50
2023-01-18T16:20:15.440Z,0.50
2023-01-18T16:25:14.831Z,0.50
2023-01-18T16:30:15.799Z,0.40
2023-01-18T16:35:13.018Z,0.50
2023-01-18T16:40:13.169Z,0.60
2023-01-18T16:45:11.294Z,0.50
2023-01-18T16:50:11.607Z,0.60
2023-01-18T16:55:09.929Z,0.50
2023-01-18T17:00:11.272Z,0.50
2023-01-18T17:05:08.722Z,0.60
2023-01-18T17:10:08.943Z,0.40
2023-01-18T17:15:09.105Z,0.50
2023-01-18T17:20:06.356Z,0.50
2023-01-18T17:25:05.383Z,0.50
2023-01-18T17:30:04.902Z,0.60
2023-01-18T17:35:05.032Z,0.60
2023-01-18T17:40:15.690Z,0.50
2023-01-18T17:45:02.469Z,0.40
2023-01-18T17:50:03.614Z,0.60
2023-01-18T17:55:02.081Z,0.40
2023-01-18T18:00:00.259Z,0.50
2023-01-18T18:04:59.601Z,0.40
2023-01-18T18:10:05.280Z,0.60
2023-01-18T18:14:58.410Z,0.80
2023-01-18T18:19:58.502Z,0.70
2023-01-18T18:24:56.782Z,0.80
2023-01-18T18:29:57.951Z,0.60
2023-01-18T18:34:55.198Z,0.70
2023-01-18T18:39:54.250Z,0.50
2023-01-18T18:44:54.626Z,0.70
2023-01-18T18:49:53.575Z,0.90
2023-01-18T18:54:54.205Z,0.80
2023-01-18T18:59:52.494Z,1.10
2023-01-18T19:04:50.780Z,1.00
2023-01-18T19:09:51.975Z,1.10
2023-01-18T19:14:48.933Z,1.10
2023-01-18T19:19:50.266Z,0.90
2023-01-18T19:24:47.866Z,1.20
2023-01-18T19:29:48.198Z,1.10
2023-01-18T19:34:47.300Z,1.60
2023-01-18T19:39:46.560Z,1.60
2023-01-18T19:44:44.829Z,1.60
2023-01-18T19:49:44.117Z,1.40
2023-01-18T19:54:44.403Z,1.40
2023-01-18T19:59:41.737Z,1.80
2023-01-18T20:04:42.515Z,1.30
2023-01-18T20:09:43.332Z,1.80
2023-01-18T20:14:41.407Z,1.60
2023-01-18T20:19:42.364Z,1.60
2023-01-18T20:24:39.004Z,1.60
2023-01-18T20:29:38.007Z,1.80
2023-01-18T20:34:38.333Z,2.30
2023-01-18T20:39:38.400Z,8.00
2023-01-18T20:44:35.511Z,85.80
2023-01-18T20:49:38.674Z,174.20
2023-01-18T20:54:35.685Z,146.70
2023-01-18T20:59:33.176Z,160.60
2023-01-18T21:04:33.316Z,83.10
2023-01-18T21:09:30.745Z,60.20
2023-01-18T21:14:30.894Z,47.90
2023-01-18T21:19:30.032Z,38.90
2023-01-18T21:24:29.276Z,87.20
2023-01-18T21:29:28.480Z,48.10
2023-01-18T21:34:27.644Z,49.60
2023-01-18T21:39:27.028Z,36.20
2023-01-18T21:44:26.080Z,28.80
2023-01-18T21:49:35.682Z,27.50
2023-01-18T21:54:23.793Z,22.80
2023-01-18T21:59:23.899Z,20.70
2023-01-18T22:04:22.263Z,58.80
2023-01-18T22:09:22.364Z,46.10
2023-01-18T22:14:21.594Z,69.40
2023-01-18T22:19:19.941Z,65.00
2023-01-18T22:24:21.182Z,53.40
2023-01-18T22:29:18.450Z,44.00
2023-01-18T22:34:19.201Z,31.20
2023-01-18T22:39:18.830Z,30.90
2023-01-18T22:44:20.222Z,27.90
2023-01-18T22:49:16.297Z,51.10
2023-01-18T22:54:15.637Z,41.30
2023-01-18T22:59:14.858Z,39.70
2023-01-18T23:04:14.068Z,32.50
2023-01-18T23:09:13.281Z,28.10
2023-01-18T23:14:12.472Z,26.80
2023-01-18T23:19:11.771Z,21.10
2023-01-18T23:24:10.000Z,47.70
2023-01-18T23:29:10.194Z,44.10
2023-01-18T23:34:09.544Z,39.70
2023-01-18T23:39:08.510Z,31.50
2023-01-18T23:44:07.727Z,29.90
2023-01-18T23:49:07.123Z,27.50
2023-01-18T23:54:05.144Z,23.10
2023-01-18T23:59:05.435Z,25.40
